Caledonia, North Dakota
Current Conditions -  °F | °C
As of 11:34 AM on Friday 19 Dec 2014 (Local Time) from KCKN Reporting Station
Haze Haze  
Wind Chill: 14°   Ceiling: 600
Heat Index: 27°   Visibility: 2.5mi
Dew Point: 25°   Wind: 16mph
Humidity: 93%   Direction: 170°S
Pressure: 30.07"   Gusts: NA
Location:  47.46°N, 96.88°W
Report Text: KCKN 191734Z AUTO 17014KT 2 1/2SM BR OVC006 M03/M04 A3007 RMK AO2
Loading
Personal Weather Stations






























Interactive Weather Map New forecast layout! Learn more

10-Day Weather Forecast

Advertisements
Track Severe Weather on mobile